Merritt, Canada
Current Conditions -  °F | °C
As of 12:00 AM on Saturday 25 Oct 2014 (Local Time) from CWLY Reporting Station
Overcast Overcast  
Wind Chill: 43°   Ceiling: 12000
Heat Index: 43°   Visibility: 9mi
Dew Point: 43°   Wind: 0mph
Humidity: 100%   Direction: NA
Pressure: 29.93"   Gusts: NA
Location:  50.11°N, 120.79°W
Report Text: CWLY 250700Z AUTO 00000KT 9SM FEW001 BKN120 OVC140 06/06 A2993 RMK SLP140
Loading
Personal Weather Stations






























Interactive Weather Map
Tropical Storm Tracking
New forecast layout! Learn more

10-Day Weather Forecast

Advertisements
Track Severe Weather on mobile